M I D A S
Marine Information and Data Acquisition System
Tripno 1950 of the Zeeleeuw from 2010-09-01 06:23:04 to 2010-09-01 11:33:48
Back to CruiseResearch ActivitiesStationsMapUnderway DataData graphs

EquipmentUnitsComment
TimeDGPSUTC
LatitudeDGPSDM.mWGS84
LongitudeDGPSDM.mWGS84
TemperatureSBE03/SBE38deg celciusITS90
ConductivitySBE21S/mITS90
SalinitySBE21 Practical Salinity Units
ChlorophylAChelsea fluorimeterg/lCalibrated in Aceton
Missing or incorrect values are displayed as -999
Sea surface data collected by the RV Zeeleeuw from 2010-09-01 05:50:38 to 2010-09-01 11:30:41
Time Latitude Longitude Temperature Conductivity Salinity ChlorophylA
2010-09-01 05:51:42 51°13.663 2°55.958 20.5388 0.340503 1.994537 -0.791624
2010-09-01 05:52:42 51°13.663 2°55.958 20.5456 0.340503 1.994766 -0.791624
2010-09-01 05:53:42 51°13.662 2°55.958 20.5435 0.340503 1.994996 -0.826448
2010-09-01 05:54:42 51°13.662 2°55.958 20.5477 0.340503 1.99516 -0.791624
2010-09-01 05:55:42 51°13.662 2°55.958 20.5499 0.340503 1.995357 -0.826448
2010-09-01 05:56:42 51°13.662 2°55.958 20.552 0.340399 1.994906 -0.791624
2010-09-01 05:57:42 51°13.663 2°55.959 20.5579 0.340399 1.995169 -0.791624
2010-09-01 05:58:42 51°13.662 2°55.959 20.5616 0.340399 1.995366 -0.826448
2010-09-01 05:59:42 51°13.662 2°55.959 20.5618 0.340399 1.995563 -0.826448
2010-09-01 06:00:41 51°13.662 2°55.96 20.5635 0.340399 1.995727 -0.7568
2010-09-01 06:01:42 51°13.662 2°55.959 20.5624 0.340399 1.99599 -0.791624
2010-09-01 06:02:42 51°13.662 2°55.96 20.5655 0.340399 1.996219 -0.7568
2010-09-01 06:03:41 51°13.662 2°55.96 20.5681 0.340399 1.99645 -0.826448
2010-09-01 06:04:41 51°13.662 2°55.961 20.579 0.340399 1.996614 -0.7568
2010-09-01 06:05:42 51°13.661 2°55.961 20.5812 0.340294 1.99613 -0.826448
2010-09-01 06:06:43 51°13.666 2°55.935 20.6042 0.340294 1.99636 -0.826448
2010-09-01 06:07:46 51°13.691 2°55.846 20.5858 0.340294 1.996557 -0.791624
2010-09-01 06:08:46 51°13.698 2°55.758 20.5912 0.340294 1.996656 -0.791624
2010-09-01 06:09:45 51°13.698 2°55.747 20.5461 0.34019 1.996205 -0.7568
2010-09-01 06:10:45 51°13.686 2°55.747 20.6358 0.340294 1.996952 -0.791624
2010-09-01 06:11:45 51°13.726 2°55.746 20.6348 0.34019 1.9966 -0.7568
2010-09-01 06:12:43 51°13.787 2°55.666 20.4719 0.34019 1.996731 -0.791624
2010-09-01 06:13:42 51°13.888 2°55.588 20.5333 0.34019 1.997093 -0.826448
2010-09-01 06:14:42 51°14.007 2°55.5 20.5471 0.340086 1.996609 -0.791624
2010-09-01 06:15:43 51°14.143 2°55.399 20.5526 0.340086 1.996905 -0.791624
2010-09-01 06:16:44 51°14.287 2°55.27 20.5378 0.340086 1.997004 -0.826448
2010-09-01 06:17:42 51°14.429 2°55.135 20.4927 0.339981 1.996454 -0.7568
2010-09-01 06:18:42 51°14.594 2°54.965 20.5114 0.339981 1.996783 -0.791624
2010-09-01 06:19:42 51°14.775 2°54.777 20.539 0.339773 1.995617 -0.7568
2010-09-01 06:20:45 51°14.959 2°54.569 20.5683 0.339669 1.995264 -0.791624
2010-09-01 06:21:44 51°15.132 2°54.369 20.5588 0.339564 1.994779 -0.791624
2010-09-01 06:22:42 51°15.3 2°54.165 20.5646 0.33946 1.994097 -0.791624
2010-09-01 06:23:42 51°15.474 2°53.953 20.5616 0.339251 1.992766 -0.791624
2010-09-01 06:24:42 51°15.648 2°53.742 20.5648 0.339147 1.992116 -0.791624
2010-09-01 06:25:42 51°15.822 2°53.537 20.5606 0.338938 1.990818 -0.791624
2010-09-01 06:26:42 51°15.996 2°53.333 20.5446 0.338834 1.990103 -0.7568
2010-09-01 06:27:52 51°16.215 2°53.127 20.5759 0.33873 1.989356 -0.7568
2010-09-01 06:29:29 51°16.528 2°52.865 20.6013 0.338104 1.985167 -0.826448
2010-09-01 06:33:32 51°17.316 2°52.216 20.6012 0.337791 1.982828 -0.791624
2010-09-01 06:35:56 51°17.765 2°51.777 20.5918 0.337791 1.982697 -0.791624
2010-09-01 06:36:57 51°17.922 2°51.535 20.6344 0.337791 1.982697 -0.791624
2010-09-01 06:37:56 51°18.071 2°51.294 20.6198 0.337687 1.982081 -0.791624
2010-09-01 06:38:56 51°18.222 2°51.048 20.636 0.337791 1.98273 -0.791624
2010-09-01 06:39:56 51°18.374 2°50.801 20.634 0.338 1.98406 -0.791624
2010-09-01 06:40:57 51°18.53 2°50.549 20.6696 0.338 1.984125 -0.791624
2010-09-01 06:41:56 51°18.679 2°50.304 20.6661 0.338 1.984191 -0.7568
2010-09-01 06:42:56 51°18.83 2°50.058 20.6854 0.338 1.984224 -0.791624
2010-09-01 06:43:57 51°18.983 2°49.811 20.6939 0.338313 1.986301 -0.791624
2010-09-01 06:44:56 51°19.132 2°49.574 20.6976 0.338208 1.985783 -0.7568
2010-09-01 06:45:56 51°19.285 2°49.333 20.6942 0.338208 1.985849 -0.791624
2010-09-01 06:46:56 51°19.436 2°49.088 20.6962 0.338208 1.985914 -0.826448
2010-09-01 06:47:56 51°19.589 2°48.845 20.7056 0.338521 1.988025 -0.791624
2010-09-01 06:48:56 51°19.746 2°48.605 20.725 0.338417 1.987573 -0.791624
2010-09-01 06:49:56 51°19.894 2°48.353 20.7352 0.338521 1.988418 -0.826448
2010-09-01 06:50:56 51°20.039 2°48.096 20.7515 0.338626 1.989265 -0.7568
2010-09-01 06:51:56 51°20.178 2°47.837 20.7448 0.338626 1.989462 -0.791624
2010-09-01 06:52:56 51°20.319 2°47.585 20.7656 0.338626 1.989593 -0.826448
2010-09-01 06:53:57 51°20.46 2°47.329 20.7893 0.338834 1.991122 -0.791624
2010-09-01 06:54:56 51°20.598 2°47.082 20.7778 0.338834 1.991253 -0.7568
2010-09-01 06:55:57 51°20.742 2°46.826 20.8026 0.338834 1.99145 -0.791624
2010-09-01 06:56:56 51°20.883 2°46.581 20.8011 0.33873 1.9909 -0.791624
2010-09-01 06:57:57 51°21.029 2°46.325 20.828 0.338938 1.992462 -0.7568
2010-09-01 06:58:56 51°21.171 2°46.078 20.8316 0.338938 1.992561 -0.7568
2010-09-01 06:59:56 51°21.318 2°45.828 20.8452 0.338938 1.992692 -0.791624
2010-09-01 07:00:56 51°21.466 2°45.574 20.8698 0.339043 1.993507 -0.791624
2010-09-01 07:01:56 51°21.605 2°45.309 20.8546 0.338938 1.993054 -0.791624
2010-09-01 07:02:57 51°21.746 2°45.038 20.8602 0.339043 1.993836 -0.791624
2010-09-01 07:03:56 51°21.877 2°44.775 20.8867 0.339147 1.994717 -0.791624
2010-09-01 07:04:57 51°22.011 2°44.509 20.8917 0.339043 1.994265 -0.826448
2010-09-01 07:05:56 51°22.141 2°44.255 20.9157 0.339147 1.995145 -0.7568
2010-09-01 07:06:56 51°22.274 2°43.996 20.9144 0.339147 1.99531 -0.791624
2010-09-01 07:07:56 51°22.405 2°43.737 20.9095 0.339251 1.996324 -0.826448
2010-09-01 07:08:57 51°22.536 2°43.488 20.941 0.339147 1.995904 -0.791624
2010-09-01 07:09:56 51°22.616 2°43.352 20.968 0.339147 1.996069 -0.7568
2010-09-01 07:10:56 51°22.662 2°43.293 20.9706 0.339147 1.996135 -0.791624
2010-09-01 07:11:56 51°22.674 2°43.307 20.985 0.339251 1.996951 -0.791624
2010-09-01 07:12:56 51°22.686 2°43.32 20.9878 0.339251 1.997083 -0.791624
2010-09-01 07:13:57 51°22.696 2°43.331 21.0079 0.339147 1.99673 -0.826448
2010-09-01 07:14:56 51°22.706 2°43.342 21.0074 0.339043 1.996278 -0.791624
2010-09-01 07:15:57 51°22.716 2°43.349 21.019 0.339147 1.99716 -0.791624
2010-09-01 07:16:56 51°22.724 2°43.355 21.0383 0.339251 1.998075 -0.791624
2010-09-01 07:17:56 51°22.732 2°43.362 21.0325 0.339147 1.997722 -0.791624
2010-09-01 07:18:56 51°22.74 2°43.371 21.0377 0.339251 1.998704 -0.791624
2010-09-01 07:19:56 51°22.746 2°43.38 21.0608 0.339251 1.998969 -0.7568
2010-09-01 07:20:57 51°22.752 2°43.391 21.0566 0.339356 1.999852 -0.826448
2010-09-01 07:21:56 51°22.757 2°43.401 21.073 0.339251 1.999499 -0.791624
2010-09-01 07:22:57 51°22.762 2°43.412 21.0821 0.339251 1.999764 -0.791624
2010-09-01 07:23:56 51°22.765 2°43.423 21.0979 0.339356 2.000747 -0.791624
2010-09-01 07:24:57 51°22.768 2°43.434 21.1078 0.339356 2.001112 -0.791624
2010-09-01 07:25:56 51°22.769 2°43.447 21.1197 0.33946 2.001996 -0.791624
2010-09-01 07:26:56 51°22.771 2°43.46 21.1284 0.33946 2.002295 -0.826448
2010-09-01 07:27:57 51°22.773 2°43.474 21.1367 0.33946 2.00256 -0.791624
2010-09-01 07:28:56 51°22.775 2°43.487 21.1438 0.339356 2.00224 -0.826448
2010-09-01 07:29:56 51°22.777 2°43.501 21.1565 0.339252 2.001954 -0.791624
2010-09-01 07:30:56 51°22.778 2°43.517 21.1731 0.339356 2.002872 -0.826448
2010-09-01 07:31:57 51°22.779 2°43.533 21.1694 0.339356 2.003171 -0.791624
2010-09-01 07:32:56 51°22.781 2°43.547 21.1967 0.339252 2.002718 -0.826448
2010-09-01 07:33:57 51°22.782 2°43.563 21.199 0.339252 2.003051 -0.791624
2010-09-01 07:34:56 51°22.782 2°43.58 21.1947 0.339356 2.004103 -0.791624
2010-09-01 07:35:56 51°22.783 2°43.593 21.2198 0.339252 2.003683 -0.826448
2010-09-01 07:36:57 51°22.782 2°43.561 21.2192 0.339252 2.004183 -0.826448
2010-09-01 07:37:56 51°22.762 2°43.486 21.2206 0.339147 2.004063 -0.791624
2010-09-01 07:38:56 51°22.743 2°43.417 21.2427 0.339147 2.004462 -0.7568
2010-09-01 07:39:56 51°22.736 2°43.39 21.255 0.339147 2.004729 -0.826448
2010-09-01 07:40:57 51°22.738 2°43.398 21.2695 0.339147 2.005029 -0.791624
2010-09-01 07:41:56 51°22.74 2°43.406 21.2768 0.339043 2.004643 -0.791624
2010-09-01 07:42:56 51°22.742 2°43.411 21.2792 0.338834 2.003602 -0.7568
2010-09-01 07:43:56 51°22.745 2°43.416 21.2983 0.338834 2.003802 -0.826448
2010-09-01 07:44:56 51°22.749 2°43.421 21.3051 0.33873 2.003416 -0.791624
2010-09-01 07:45:56 51°22.753 2°43.427 21.3168 0.338834 2.004403 -0.791624
2010-09-01 07:46:56 51°22.758 2°43.434 21.3212 0.338626 2.003362 -0.7568
2010-09-01 07:47:56 51°22.761 2°43.44 21.3377 0.338522 2.003042 -0.791624
2010-09-01 07:48:57 51°22.764 2°43.448 21.3378 0.338522 2.003376 -0.791624
2010-09-01 07:49:56 51°22.766 2°43.457 21.3571 0.338522 2.003709 -0.791624
2010-09-01 07:50:57 51°22.768 2°43.466 21.3615 0.338522 2.004077 -0.826448
2010-09-01 07:51:56 51°22.767 2°43.474 21.3657 0.338522 2.004544 -0.791624
2010-09-01 07:52:56 51°22.768 2°43.484 21.3962 0.338417 2.004358 -0.791624
2010-09-01 07:53:56 51°22.766 2°43.494 21.3957 0.338417 2.004792 -0.791624
2010-09-01 07:54:56 51°22.765 2°43.505 21.4032 0.338417 2.00516 -0.791624
2010-09-01 07:55:56 51°22.764 2°43.515 21.4103 0.338313 2.00474 -0.791624
2010-09-01 07:56:57 51°22.765 2°43.513 21.4239 0.338313 2.005074 -0.7568
2010-09-01 07:57:56 51°22.768 2°43.485 21.4363 0.338209 2.004653 -0.791624
2010-09-01 07:58:56 51°22.768 2°43.451 21.4486 0.338313 2.005744 -0.826448
2010-09-01 07:59:56 51°22.76 2°43.427 21.4574 0.338209 2.00539 -0.791624
2010-09-01 08:00:56 51°22.752 2°43.412 21.4585 0.338104 2.005069 -0.791624
2010-09-01 08:01:57 51°22.749 2°43.408 21.4676 0.338104 2.005337 -0.791624
2010-09-01 08:02:56 51°22.748 2°43.405 21.4775 0.338104 2.005606 -0.791624
2010-09-01 08:03:57 51°22.749 2°43.401 21.4857 0.338 2.005084 -0.791624
2010-09-01 08:04:56 51°22.75 2°43.4 21.4958 0.337896 2.004629 -0.791624
2010-09-01 08:05:56 51°22.752 2°43.4 21.4933 0.337896 2.004897 -0.791624
2010-09-01 08:06:56 51°22.754 2°43.401 21.5196 0.337792 2.004443 -0.791624
2010-09-01 08:07:56 51°22.755 2°43.404 21.5334 0.337792 2.004778 -0.791624
2010-09-01 08:08:56 51°22.756 2°43.407 21.521 0.337792 2.00508 -0.791624
2010-09-01 08:09:57 51°22.758 2°43.407 21.5364 0.337687 2.004558 -0.7568
2010-09-01 08:10:56 51°22.795 2°43.405 21.5327 0.337583 2.004304 -0.826448
2010-09-01 08:11:57 51°22.827 2°43.469 21.5528 0.337687 2.005195 -0.7568
2010-09-01 08:12:56 51°22.817 2°43.545 21.5746 0.337583 2.004941 -0.7568
2010-09-01 08:13:56 51°22.806 2°43.577 21.5579 0.337583 2.005814 -0.791624
2010-09-01 08:15:00 51°22.804 2°43.58 21.5894 0.337479 2.005762 -0.7568
2010-09-01 08:15:58 51°22.782 2°43.565 21.5765 0.337479 2.005897 -0.791624
2010-09-01 08:16:56 51°22.765 2°43.53 21.5931 0.337374 2.005072 -0.791624
2010-09-01 08:17:56 51°22.755 2°43.5 21.5893 0.337374 2.00524 -0.791624
2010-09-01 08:18:56 51°22.749 2°43.477 21.5937 0.33727 2.004885 -0.791624
2010-09-01 08:19:56 51°22.746 2°43.465 21.6132 0.337166 2.004463 -0.7568
2010-09-01 08:20:57 51°22.745 2°43.46 21.6244 0.337062 2.004142 -0.791624
2010-09-01 08:21:56 51°22.745 2°43.464 21.6256 0.336957 2.003754 -0.791624
2010-09-01 08:22:57 51°22.745 2°43.468 21.6418 0.336853 2.003298 -0.826448
2010-09-01 08:23:56 51°22.744 2°43.47 21.6602 0.336749 2.002876 -0.826448
2010-09-01 08:24:56 51°22.746 2°43.468 21.6565 0.336749 2.003077 -0.791624
2010-09-01 08:25:56 51°22.747 2°43.462 21.6651 0.336644 2.002622 -0.7568
2010-09-01 08:26:56 51°22.749 2°43.454 21.6767 0.33654 2.002132 -0.791624
2010-09-01 08:27:56 51°22.749 2°43.444 21.6831 0.336436 2.001575 -0.7568
2010-09-01 08:28:57 51°22.748 2°43.434 21.7003 0.336227 2.000395 -0.791624
2010-09-01 08:29:56 51°22.747 2°43.425 21.7059 0.336227 2.000529 -0.791624
2010-09-01 08:30:56 51°22.747 2°43.416 21.7172 0.336123 1.999972 -0.791624
2010-09-01 08:31:56 51°22.751 2°43.416 21.7235 0.336019 1.999449 -0.826448
2010-09-01 08:32:56 51°22.757 2°43.419 21.7281 0.33581 1.998234 -0.791624
2010-09-01 08:33:56 51°22.761 2°43.42 21.7345 0.33581 1.998402 -0.791624
2010-09-01 08:34:56 51°22.764 2°43.421 21.7556 0.335706 1.997878 -0.826448
2010-09-01 08:35:56 51°22.767 2°43.421 21.7599 0.335601 1.997355 -0.826448
2010-09-01 08:36:57 51°22.768 2°43.417 21.7696 0.335602 1.997523 -0.826448
2010-09-01 08:37:56 51°22.77 2°43.413 21.7711 0.335497 1.996932 -0.791624
2010-09-01 08:38:57 51°22.77 2°43.406 21.7842 0.335393 1.996408 -0.791624
2010-09-01 08:39:56 51°22.769 2°43.397 21.7993 0.335393 1.996509 -0.791624
2010-09-01 08:40:56 51°22.768 2°43.386 21.794 0.335289 1.996086 -0.826448
2010-09-01 08:41:56 51°22.767 2°43.378 21.8036 0.335184 1.995595 -0.826448
2010-09-01 08:42:56 51°22.769 2°43.376 21.7981 0.33508 1.995105 -0.791624
2010-09-01 08:43:56 51°22.776 2°43.381 21.8158 0.33508 1.995239 -0.791624
2010-09-01 08:44:56 51°22.782 2°43.392 21.8372 0.33508 1.995507 -0.791624
2010-09-01 08:45:56 51°22.785 2°43.399 21.8397 0.334976 1.99505 -0.7568
2010-09-01 08:46:56 51°22.788 2°43.402 21.8569 0.334871 1.994526 -0.791624
2010-09-01 08:47:56 51°22.79 2°43.402 21.8602 0.334871 1.994727 -0.826448
2010-09-01 08:48:57 51°22.792 2°43.397 21.865 0.334767 1.994337 -0.791624
2010-09-01 08:49:56 51°22.792 2°43.391 21.8778 0.334767 1.994572 -0.791624
2010-09-01 08:50:56 51°22.791 2°43.383 21.8829 0.334767 1.994773 -0.791624
2010-09-01 08:51:56 51°22.791 2°43.372 21.9032 0.334663 1.994249 -0.791624
2010-09-01 08:52:56 51°22.789 2°43.36 21.8954 0.334663 1.99445 -0.826448
2010-09-01 08:53:56 51°22.787 2°43.347 21.9 0.334559 1.993859 -0.7568
2010-09-01 08:54:56 51°22.787 2°43.338 21.9092 0.334559 1.994026 -0.791624
2010-09-01 08:55:56 51°22.79 2°43.342 21.9272 0.334454 1.993435 -0.826448
2010-09-01 08:56:57 51°22.795 2°43.36 21.9303 0.334454 1.993569 -0.826448
2010-09-01 08:57:56 51°22.796 2°43.38 21.9381 0.33435 1.993111 -0.791624
2010-09-01 08:58:56 51°22.797 2°43.401 21.9347 0.33435 1.99338 -0.791624
2010-09-01 08:59:56 51°22.795 2°43.416 21.9482 0.33435 1.993615 -0.826448
2010-09-01 09:00:57 51°22.792 2°43.426 21.9597 0.334246 1.993191 -0.791624
2010-09-01 09:01:56 51°22.79 2°43.431 21.9726 0.334246 1.993358 -0.7568
2010-09-01 09:02:56 51°22.787 2°43.428 21.9836 0.334141 1.992867 -0.826448
2010-09-01 09:03:56 51°22.782 2°43.405 22.0024 0.334141 1.993001 -0.7568
2010-09-01 09:04:56 51°22.774 2°43.367 22.0199 0.334141 1.993236 -0.791624
2010-09-01 09:05:57 51°22.765 2°43.33 21.9978 0.333933 1.991918 -0.791624
2010-09-01 09:06:57 51°22.765 2°43.329 22.0085 0.333933 1.991918 -0.791624
2010-09-01 09:08:00 51°22.774 2°43.373 22.018 0.333933 1.992119 -0.791624
2010-09-01 09:08:59 51°22.782 2°43.427 22.0281 0.333829 1.991561 -0.791624
2010-09-01 09:09:57 51°22.786 2°43.466 22.0365 0.333933 1.992421 -0.7568
2010-09-01 09:10:56 51°22.787 2°43.494 22.0462 0.333724 1.99127 -0.791624
2010-09-01 09:11:56 51°22.784 2°43.514 22.0673 0.333724 1.991438 -0.791624
2010-09-01 09:12:56 51°22.779 2°43.527 22.0608 0.333724 1.99164 -0.826448
2010-09-01 09:13:56 51°22.775 2°43.536 22.0605 0.33362 1.991114 -0.791624
2010-09-01 09:14:56 51°22.77 2°43.528 22.0718 0.33362 1.991349 -0.7568
2010-09-01 09:15:56 51°22.76 2°43.497 22.0823 0.33362 1.99145 -0.7568
2010-09-01 09:16:56 51°22.743 2°43.461 22.0927 0.333516 1.990891 -0.791624
2010-09-01 09:17:56 51°22.729 2°43.433 22.0995 0.333516 1.990958 -0.7568
2010-09-01 09:18:57 51°22.724 2°43.418 22.0979 0.333516 1.991059 -0.826448
2010-09-01 09:19:56 51°22.725 2°43.416 22.1076 0.333411 1.990433 -0.791624
2010-09-01 09:20:56 51°22.727 2°43.42 22.1208 0.333411 1.990668 -0.791624
2010-09-01 09:21:56 51°22.728 2°43.428 22.1281 0.333411 1.990836 -0.791624
2010-09-01 09:22:56 51°22.728 2°43.436 22.118 0.333307 1.990377 -0.826448
2010-09-01 09:23:56 51°22.726 2°43.446 22.1441 0.333307 1.990545 -0.791624
2010-09-01 09:24:56 51°22.724 2°43.418 22.1465 0.333307 1.990713 -0.826448
2010-09-01 09:25:56 51°22.743 2°43.342 22.1454 0.333203 1.990288 -0.7568
2010-09-01 09:26:56 51°22.764 2°43.274 22.158 0.333203 1.990456 -0.791624
2010-09-01 09:27:56 51°22.777 2°43.222 22.1696 0.333203 1.99059 -0.791624
2010-09-01 09:28:56 51°22.786 2°43.181 22.1793 0.332994 1.989505 -0.826448
2010-09-01 09:29:56 51°22.792 2°43.149 22.1724 0.333203 1.991094 -0.826448
2010-09-01 09:30:56 51°22.803 2°43.118 22.1697 0.332994 1.989807 -0.791624
2010-09-01 09:31:56 51°22.833 2°43.112 22.1729 0.333099 1.990535 -0.791624
2010-09-01 09:32:56 51°22.85 2°43.151 22.1949 0.332994 1.990009 -0.826448
2010-09-01 09:33:56 51°22.844 2°43.191 22.205 0.33289 1.989584 -0.826448
2010-09-01 09:34:56 51°22.825 2°43.213 22.2106 0.333099 1.99114 -0.791624
2010-09-01 09:35:56 51°22.8 2°43.223 22.2175 0.33289 1.989954 -0.791624
2010-09-01 09:36:56 51°22.775 2°43.223 22.2193 0.33289 1.990122 -0.826448
2010-09-01 09:37:56 51°22.755 2°43.217 22.2241 0.332786 1.989562 -0.7568
2010-09-01 09:38:56 51°22.746 2°43.201 22.2406 0.33289 1.990391 -0.7568
2010-09-01 09:39:56 51°22.739 2°43.182 22.2487 0.332786 1.989696 -0.791624
2010-09-01 09:40:56 51°22.731 2°43.162 22.2575 0.332786 1.989663 -0.791624
2010-09-01 09:41:56 51°22.722 2°43.142 22.2545 0.332681 1.989069 -0.826448
2010-09-01 09:42:56 51°22.713 2°43.119 22.2622 0.332681 1.98917 -0.7568
2010-09-01 09:43:56 51°22.704 2°43.095 22.2686 0.332577 1.988577 -0.791624
2010-09-01 09:44:56 51°22.691 2°43.069 22.2897 0.332577 1.988677 -0.791624
2010-09-01 09:45:57 51°22.655 2°43.063 22.3046 0.332577 1.988778 -0.826448
2010-09-01 09:46:56 51°22.632 2°43.101 22.3062 0.332577 1.988946 -0.826448
2010-09-01 09:47:56 51°22.638 2°43.142 22.2982 0.332473 1.988386 -0.791624
2010-09-01 09:48:56 51°22.655 2°43.172 22.3076 0.332473 1.988655 -0.826448
2010-09-01 09:49:57 51°22.667 2°43.182 22.3124 0.332473 1.988823 -0.791624
2010-09-01 09:50:56 51°22.673 2°43.182 22.3013 0.332473 1.989025 -0.791624
2010-09-01 09:51:56 51°22.676 2°43.179 22.3347 0.332369 1.988499 -0.791624
2010-09-01 09:52:56 51°22.677 2°43.172 22.3334 0.332369 1.988599 -0.826448
2010-09-01 09:53:56 51°22.676 2°43.162 22.3433 0.332369 1.988734 -0.826448
2010-09-01 09:54:56 51°22.674 2°43.148 22.3534 0.332369 1.988835 -0.826448
2010-09-01 09:55:56 51°22.672 2°43.131 22.3547 0.332264 1.988275 -0.791624
2010-09-01 09:56:56 51°22.669 2°43.113 22.3556 0.332264 1.98851 -0.826448
2010-09-01 09:57:56 51°22.667 2°43.091 22.3689 0.332264 1.988645 -0.7568
2010-09-01 09:58:56 51°22.662 2°43.07 22.3889 0.332264 1.988981 -0.826448
2010-09-01 09:59:56 51°22.659 2°43.047 22.4046 0.332264 1.989183 -0.826448
2010-09-01 10:00:56 51°22.668 2°43.036 22.3704 0.33216 1.988555 -0.791624
2010-09-01 10:01:57 51°22.674 2°43.08 22.4058 0.332264 1.989554 -0.826448
2010-09-01 10:02:56 51°22.659 2°43.119 22.4232 0.33216 1.98906 -0.791624
2010-09-01 10:03:56 51°22.639 2°43.15 22.4328 0.332264 1.990025 -0.826448
2010-09-01 10:04:56 51°22.629 2°43.193 22.4442 0.33216 1.989835 -0.791624
2010-09-01 10:05:56 51°22.643 2°43.221 22.4495 0.33216 1.989667 -0.791624
2010-09-01 10:06:56 51°22.658 2°43.236 22.4516 0.33216 1.989801 -0.791624
2010-09-01 10:07:57 51°22.675 2°43.259 22.4582 0.332056 1.989038 -0.826448
2010-09-01 10:08:56 51°22.691 2°43.285 22.4445 0.332056 1.989106 -0.791624
2010-09-01 10:09:56 51°22.705 2°43.318 22.4609 0.332056 1.989207 -0.791624
2010-09-01 10:10:56 51°22.713 2°43.333 22.4787 0.332056 1.989207 -0.791624
2010-09-01 10:11:56 51°22.713 2°43.33 22.4735 0.331951 1.988612 -0.826448
2010-09-01 10:12:56 51°22.716 2°43.337 22.4973 0.331951 1.988713 -0.7568
2010-09-01 10:13:56 51°22.722 2°43.344 22.4885 0.331847 1.988018 -0.791624
2010-09-01 10:14:56 51°22.73 2°43.351 22.4949 0.331743 1.987457 -0.826448
2010-09-01 10:15:56 51°22.733 2°43.346 22.5069 0.331847 1.988186 -0.791624
2010-09-01 10:16:56 51°22.733 2°43.335 22.5001 0.331847 1.988186 -0.791624
2010-09-01 10:17:56 51°22.729 2°43.32 22.5196 0.331743 1.987693 -0.826448
2010-09-01 10:18:56 51°22.746 2°43.326 22.5085 0.331534 1.986301 -0.791624
2010-09-01 10:19:56 51°22.769 2°43.342 22.5055 0.331639 1.987233 -0.791624
2010-09-01 10:20:56 51°22.784 2°43.345 22.5327 0.331639 1.987435 -0.791624
2010-09-01 10:21:56 51°22.794 2°43.338 22.526 0.331534 1.986873 -0.826448
2010-09-01 10:22:56 51°22.798 2°43.324 22.5288 0.331534 1.98684 -0.791624
2010-09-01 10:23:56 51°22.804 2°43.311 22.5119 0.331639 1.987502 -0.791624
2010-09-01 10:24:56 51°22.809 2°43.393 22.5178 0.331639 1.987772 -0.826448
2010-09-01 10:25:56 51°22.7 2°43.559 22.5157 0.331534 1.987278 -0.791624
2010-09-01 10:26:56 51°22.538 2°43.765 22.5248 0.331534 1.987311 -0.791624
2010-09-01 10:27:56 51°22.373 2°43.984 22.5531 0.33143 1.98675 -0.791624
2010-09-01 10:28:56 51°22.205 2°44.197 22.552 0.33143 1.98675 -0.7568
2010-09-01 10:29:56 51°22.039 2°44.414 22.5325 0.33143 1.986952 -0.791624
2010-09-01 10:30:56 51°21.879 2°44.641 22.5435 0.331326 1.986425 -0.791624
2010-09-01 10:31:56 51°21.723 2°44.875 22.5875 0.33143 1.986952 -0.7568
2010-09-01 10:32:56 51°21.567 2°45.113 22.5594 0.331326 1.986391 -0.791624
2010-09-01 10:33:56 51°21.41 2°45.351 22.5919 0.331326 1.986526 -0.791624
2010-09-01 10:34:56 51°21.24 2°45.563 22.5762 0.331117 1.985032 -0.791624
2010-09-01 10:35:56 51°21.055 2°45.738 22.5775 0.331013 1.984437 -0.791624
2010-09-01 10:36:56 51°20.88 2°45.933 22.67 0.331013 1.98437 -0.826448
2010-09-01 10:37:56 51°20.729 2°46.165 22.6057 0.330804 1.982944 -0.791624
2010-09-01 10:38:56 51°20.589 2°46.408 22.6269 0.3307 1.982148 -0.791624
2010-09-01 10:39:56 51°20.441 2°46.643 22.6534 0.330596 1.981317 -0.826448
2010-09-01 10:40:56 51°20.294 2°46.879 22.7073 0.330491 1.98032 -0.791624
2010-09-01 10:41:56 51°20.146 2°47.114 22.6735 0.330283 1.978895 -0.826448
2010-09-01 10:42:56 51°19.995 2°47.348 22.5986 0.330074 1.97747 -0.791624
2010-09-01 10:43:56 51°19.844 2°47.583 22.6452 0.330074 1.977202 -0.7568
2010-09-01 10:44:56 51°19.69 2°47.817 22.6758 0.32997 1.976273 -0.791624
2010-09-01 10:45:56 51°19.54 2°48.049 22.7221 0.329866 1.97541 -0.791624
2010-09-01 10:46:56 51°19.389 2°48.275 22.6837 0.329761 1.97428 -0.791624
2010-09-01 10:47:56 51°19.245 2°48.51 22.6064 0.329657 1.973351 -0.826448
2010-09-01 10:48:56 51°19.104 2°48.745 22.6689 0.329553 1.972356 -0.826448
2010-09-01 10:49:56 51°18.962 2°48.98 22.6665 0.329448 1.971161 -0.791624
2010-09-01 10:50:56 51°18.823 2°49.217 22.6302 0.329448 1.970894 -0.826448
2010-09-01 10:51:56 51°18.683 2°49.453 22.6304 0.329344 1.969867 -0.791624
2010-09-01 10:52:56 51°18.543 2°49.691 22.6136 0.329448 1.970294 -0.791624
2010-09-01 10:53:56 51°18.397 2°49.928 22.6104 0.329448 1.970094 -0.826448
2010-09-01 10:54:56 51°18.253 2°50.168 22.2911 0.329553 1.970588 -0.791624
2010-09-01 10:55:56 51°18.113 2°50.415 22.4106 0.329448 1.969828 -0.791624
2010-09-01 10:56:56 51°17.99 2°50.679 22.3748 0.329553 1.970289 -0.7568
2010-09-01 10:57:56 51°17.872 2°50.948 22.4192 0.329657 1.970849 -0.7568
2010-09-01 10:58:56 51°17.755 2°51.215 22.3869 0.329761 1.971476 -0.791624
2010-09-01 10:59:56 51°17.636 2°51.48 22.3151 0.329761 1.97131 -0.791624
2010-09-01 11:00:56 51°17.517 2°51.749 22.5004 0.329761 1.97111 -0.791624
2010-09-01 11:01:56 51°17.381 2°52.006 22.4264 0.329866 1.97167 -0.791624
2010-09-01 11:02:56 51°17.203 2°52.212 22.4091 0.32997 1.972231 -0.7568
2010-09-01 11:03:56 51°17.025 2°52.411 22.4616 0.32997 1.972064 -0.791624
2010-09-01 11:04:56 51°16.851 2°52.618 22.4763 0.32997 1.971931 -0.7568
2010-09-01 11:05:56 51°16.677 2°52.83 22.4761 0.330074 1.972458 -0.791624
2010-09-01 11:06:56 51°16.499 2°53.034 22.4622 0.330178 1.973018 -0.791624
2010-09-01 11:07:56 51°16.307 2°53.196 22.4861 0.330178 1.972985 -0.791624
2010-09-01 11:08:56 51°16.104 2°53.329 22.4823 0.330283 1.973478 -0.7568
2010-09-01 11:09:56 51°15.904 2°53.466 22.4964 0.330283 1.973412 -0.791624
2010-09-01 11:10:56 51°15.707 2°53.609 22.4858 0.330387 1.973872 -0.791624
2010-09-01 11:11:56 51°15.523 2°53.783 22.5033 0.330387 1.973872 -0.791624
2010-09-01 11:12:56 51°15.346 2°53.974 22.517 0.330491 1.974498 -0.826448
2010-09-01 11:13:56 51°15.174 2°54.174 22.5212 0.330491 1.974365 -0.7568
2010-09-01 11:14:56 51°15.002 2°54.369 22.5294 0.330596 1.974958 -0.791624
2010-09-01 11:15:58 51°14.827 2°54.587 22.5319 0.330596 1.974892 -0.791624
2010-09-01 11:16:58 51°14.663 2°54.795 22.5328 0.3307 1.975452 -0.791624
2010-09-01 11:17:56 51°14.505 2°54.993 22.5398 0.330804 1.976078 -0.791624
2010-09-01 11:18:56 51°14.344 2°55.2 22.5469 0.330804 1.976045 -0.7568
2010-09-01 11:19:56 51°14.202 2°55.346 22.5427 0.330908 1.976672 -0.791624
2010-09-01 11:20:56 51°14.08 2°55.442 22.5345 0.330908 1.976605 -0.7568
2010-09-01 11:21:56 51°13.962 2°55.527 22.5466 0.331013 1.977265 -0.826448
2010-09-01 11:22:56 51°13.875 2°55.592 22.5374 0.331013 1.977198 -0.826448
2010-09-01 11:23:56 51°13.798 2°55.664 22.5481 0.331117 1.977791 -0.7568
2010-09-01 11:24:56 51°13.739 2°55.756 22.5552 0.331117 1.977725 -0.791624
2010-09-01 11:25:56 51°13.692 2°55.853 22.5556 0.331221 1.978384 -0.791624
2010-09-01 11:26:56 51°13.667 2°55.942 22.5645 0.331221 1.978251 -0.826448
2010-09-01 11:27:56 51°13.662 2°55.959 22.5682 0.331221 1.978017 -0.791624
2010-09-01 11:28:56 51°13.662 2°55.959 22.5752 0.331221 1.97785 -0.826448
2010-09-01 11:29:56 51°13.661 2°55.959 22.5757 0.331117 1.97699 -0.7568